»·PEaware :: AAL491 KPHX-KLAS

AAL491 :: KPHX-KLAS

FLIGHT INFORMATION

Flight Status: Arrived
Operator:
American Airlines
More flights by this operator :: More flights under this callsign
Pilot: Alex Silvestri (7186)
Aircraft: BOEING 757-200
(B752)
More flights by this aircraft type
Origin: KPHX Phoenix Sky Harbor Intl
United States
Destination: KLAS McCarran Intl
United States
More flights between these airports :: More routes between these airports
Route: MAYSA5 SISIE IGM TYSSN4
File this flight plan on PilotEdge
Remarks:
Altitude:
(Current/Filed)
26,000ft
Speed:
(Current/Filed)
470kts
Departed: 07-Jan-17 06:27 PM
Arrived: 07-Jan-17 07:14 PM
Distance/Time
Traveled:
221nm/0:47
Distance/Time
To Go:
Arrived

Flight Plot

Page will automatically refresh every two minutes.

Flight plan parsing failed; only flown route is shown


Map Options




Map Legend


Flown Route
Filed Route
Departure Airport
Arrival Airport
Navaid (VOR, NDB)
Fix

Horizontal Profiles

Position Reports

Time Latitude Longitude Heading Altitude Ground
Speed
07-Jan-17 17:59 33.436894 -112.002444 89 1136ft 0kts
07-Jan-17 18:00 33.436894 -112.002444 89 1136ft 0kts
07-Jan-17 18:01 33.436894 -112.002444 89 1136ft 0kts
07-Jan-17 18:02 33.436894 -112.002444 89 1136ft 0kts
07-Jan-17 18:03 33.436894 -112.002444 89 1136ft 0kts
07-Jan-17 18:04 33.436894 -112.002444 89 1136ft 0kts
07-Jan-17 18:05 33.436894 -112.002444 89 1136ft 0kts
07-Jan-17 18:06 33.436894 -112.002444 89 1136ft 0kts
07-Jan-17 18:07 33.436894 -112.002444 89 1136ft 0kts
07-Jan-17 18:08 33.436894 -112.002444 89 1136ft 0kts
07-Jan-17 18:09 33.436894 -112.002444 89 1136ft 0kts
07-Jan-17 18:10 33.436894 -112.002444 89 1136ft 0kts
07-Jan-17 18:11 33.436894 -112.002444 89 1136ft 0kts
07-Jan-17 18:12 33.436894 -112.002444 89 1136ft 0kts
07-Jan-17 18:13 33.436894 -112.002444 89 1136ft 0kts
07-Jan-17 18:14 33.436893 -112.002649 88 1135ft 2kts
07-Jan-17 18:15 33.436636 -112.003024 1 1134ft 0kts
07-Jan-17 18:16 33.436636 -112.003024 1 1134ft 0kts
07-Jan-17 18:17 33.436636 -112.003024 1 1134ft 0kts
07-Jan-17 18:18 33.437052 -112.003000 4 1135ft 4kts
07-Jan-17 18:19 33.438545 -112.003046 6 1137ft 2kts
07-Jan-17 18:20 33.439025 -112.005045 268 1135ft 14kts
07-Jan-17 18:21 33.438999 -112.011383 270 1130ft 22kts
07-Jan-17 18:22 33.438979 -112.019182 267 1124ft 25kts
07-Jan-17 18:23 33.439043 -112.028346 267 1117ft 29kts
07-Jan-17 18:24 33.439766 -112.029689 1 1117ft 0kts
07-Jan-17 18:25 33.439766 -112.029689 1 1117ft 0kts
07-Jan-17 18:26 33.440861 -112.029499 47 1117ft 11kts
07-Jan-17 18:27 33.440833 -112.003513 89 1549ft 157kts
07-Jan-17 18:28 33.439298 -111.941836 91 3255ft 233kts
07-Jan-17 18:29 33.446952 -111.862602 40 6867ft 254kts
07-Jan-17 18:30 33.515372 -111.845802 2 8056ft 264kts
07-Jan-17 18:31 33.589334 -111.841190 358 10172ft 273kts
07-Jan-17 18:32 33.675859 -111.841967 347 12187ft 347kts
07-Jan-17 18:33 33.758178 -111.891634 304 15711ft 345kts
07-Jan-17 18:34 33.815882 -111.985136 304 18725ft 356kts
07-Jan-17 18:35 33.875373 -112.082613 303 21203ft 369kts
07-Jan-17 18:36 33.935977 -112.182195 304 22822ft 374kts
07-Jan-17 18:37 33.998281 -112.284174 303 24861ft 384kts
07-Jan-17 18:38 34.072898 -112.378891 315 26284ft 410kts
07-Jan-17 18:39 34.164697 -112.471315 316 26323ft 450kts
07-Jan-17 18:40 34.261452 -112.568100 316 26467ft 452kts
07-Jan-17 18:41 34.357539 -112.665182 316 26479ft 452kts
07-Jan-17 18:42 34.453646 -112.761841 315 26474ft 452kts
07-Jan-17 18:43 34.549513 -112.859355 315 26469ft 452kts
07-Jan-17 18:44 34.643728 -112.960438 313 26453ft 452kts
07-Jan-17 18:45 34.736759 -113.062297 313 26448ft 453kts
07-Jan-17 18:46 34.829646 -113.164848 313 26405ft 452kts
07-Jan-17 18:47 34.922475 -113.268146 313 26371ft 453kts
07-Jan-17 18:48 35.002832 -113.377320 296 26295ft 397kts
07-Jan-17 18:49 35.057090 -113.492679 295 26314ft 391kts
07-Jan-17 18:50 35.110452 -113.607671 295 26100ft 389kts
07-Jan-17 18:51 35.156842 -113.707278 295 24662ft 370kts
07-Jan-17 18:52 35.206349 -113.814294 295 23080ft 362kts
07-Jan-17 18:53 35.255238 -113.920058 299 21437ft 356kts
07-Jan-17 18:54 35.331230 -113.999198 317 19789ft 359kts
07-Jan-17 18:55 35.409794 -114.072524 317 18156ft 352kts
07-Jan-17 18:56 35.486738 -114.144048 317 16616ft 345kts
07-Jan-17 18:57 35.562084 -114.214296 318 15139ft 338kts
07-Jan-17 18:58 35.636300 -114.283362 318 13476ft 331kts
07-Jan-17 18:59 35.708469 -114.350906 318 12160ft 314kts
07-Jan-17 19:00 35.777825 -114.400346 333 12017ft 285kts
07-Jan-17 19:01 35.851830 -114.435325 333 12024ft 285kts
07-Jan-17 19:02 35.925657 -114.469781 334 11041ft 283kts
07-Jan-17 19:03 35.998328 -114.503680 334 10161ft 267kts
07-Jan-17 19:04 36.042774 -114.555219 283 9800ft 219kts
07-Jan-17 19:05 36.057056 -114.627761 279 9013ft 217kts
07-Jan-17 19:06 36.071241 -114.700330 281 8325ft 218kts
07-Jan-17 19:07 36.074127 -114.773921 266 7393ft 215kts
07-Jan-17 19:08 36.073598 -114.848204 266 6431ft 218kts
07-Jan-17 19:09 36.073572 -114.921697 266 5295ft 205kts
07-Jan-17 19:10 36.073638 -114.986727 266 4346ft 170kts
07-Jan-17 19:11 36.073663 -115.035184 266 3515ft 127kts
07-Jan-17 19:12 36.073641 -115.079919 272 2851ft 141kts
07-Jan-17 19:13 36.073750 -115.126780 270 2106ft 127kts
07-Jan-17 19:14 36.074733 -115.150507 293 2123ft 0kts
07-Jan-17 19:15 36.075878 -115.151702 334 2126ft 23kts
07-Jan-17 19:16 36.077989 -115.152840 352 2126ft 9kts
07-Jan-17 19:17 36.077733 -115.146559 94 2105ft 39kts
07-Jan-17 19:18 36.077550 -115.134229 82 2067ft 14kts
07-Jan-17 19:19 36.079919 -115.134762 315 2065ft 3kts
07-Jan-17 19:20 36.079929 -115.134774 315 2065ft 0kts
07-Jan-17 19:21 36.079929 -115.134774 315 2065ft 0kts
07-Jan-17 19:22 36.079929 -115.134774 315 2065ft 0kts

Navigation Log

Ident Type Via Name
Flight plan parsing failed, navigation log unavailable